• Join FlightAware (Why Join?)
  • Login
  • US Flag 
01:57AM EDT


 

Airport Tracker/Info


-or-


 

Live Flight TrackerFlight Track Log ✈ SWA2326 ✈ 27-Apr-2013 ✈ KMDW - KSJC

Flight Track Log - Related Links

Times and Time Zones

All times are in EDT time to prevent confusion due to time zone crossing. See the SWA2326 flight status page for this flight to view local times or setup timezone preferences in your user account.

Time Position Orientation Groundspeed Altitude Reporting Facility
EDT Latitude Longitude Course Direction KTS MPH feet Rate Location/Type
11:16AM 41.7667 -87.7833 251° West 162 186 2,200  Level Chicago TRACON
11:17AM 41.7500 -87.8500 251° West 230 265 3,900 960 Climbing Chicago TRACON
11:18AM 41.7356 -87.9156 254° West 221 254 4,000 180 Climbing Chicago Center
11:19AM 41.7447 -88.0119 277° West 251 289 4,300 960 Climbing Chicago Center
11:20AM 41.7758 -88.1278 290° West 271 312 6,000 1,440 Climbing Chicago Center
11:21AM 41.8022 -88.2250 290° West 280 322 7,300 2,460 Climbing Chicago Center
11:22AM 41.8175 -88.3311 281° West 299 344 11,100 3,060 Climbing Chicago Center
11:23AM 41.8156 -88.4439 269° West 306 352 13,600 2,580 Climbing Chicago Center
11:24AM 41.8222 -88.5667 274° West 336 387 16,400 2,460 Climbing Chicago Center
11:25AM 41.8972 -88.6431 323° Northwest 348 400 18,700 2,700 Climbing Chicago Center
11:26AM 42.0064 -88.7208 332° Northwest 369 425 22,000 2,700 Climbing Chicago Center
11:27AM 42.1017 -88.7881 332° Northwest 384 442 24,300 2,100 Climbing Chicago Center
11:28AM 42.1983 -88.8575 332° Northwest 394 453 26,400 1,980 Climbing Chicago Center
11:29AM 42.2764 -88.9642 315° West 410 472 28,500 1,560 Climbing Chicago Center
11:30AM 42.2875 -89.1189 276° West 415 478 29,700 1,020 Climbing Chicago Center
11:31AM 42.2956 -89.2850 274° West 439 505 30,700 900 Climbing Chicago Center
11:32AM 42.3042 -89.4533 274° West 446 513 31,600 660 Climbing Chicago Center
11:33AM 42.3147 -89.6217 275° West 448 516 32,100 1,020 Climbing Chicago Center
11:34AM 42.3272 -89.8100 275° West 435 501 33,800 1,680 Climbing Chicago Center
11:35AM 42.3389 -89.9500 276° West 425 489 35,600 1,440 Climbing Chicago Center
11:36AM 42.3519 -90.1036 277° West 416 479 36,800 1,020 Climbing Chicago Center
11:37AM 42.3633 -90.2589 276° West 419 482 37,700 540 Climbing Chicago Center
11:38AM 42.3792 -90.4467 277° West 422 486 38,000 120 Climbing Chicago Center
11:39AM 42.3903 -90.6058 275° West 428 493 38,000  Level Chicago Center
11:40AM 42.4044 -90.7658 277° West 431 496 38,000  Level Chicago Center
11:41AM 42.4150 -90.9242 275° West 428 493 38,000  Level Chicago Center
11:42AM 42.4275 -91.0842 276° West 429 494 38,000  Level Chicago Center
11:43AM 42.4381 -91.2456 275° West 432 497 38,000  Level Chicago Center
11:44AM 42.4508 -91.4394 275° West 432 497 38,000  Level Chicago Center
11:45AM 42.4617 -91.6011 275° West 431 496 38,000  Level Chicago Center
11:46AM 42.4725 -91.7622 275° West 430 495 38,000  Level Chicago Center
11:47AM 42.4828 -91.9236 275° West 430 495 38,000  Level Chicago Center
11:48AM 42.4928 -92.0847 275° West 430 495 38,000  Level Chicago Center
11:49AM 42.5039 -92.2497 275° West 433 498 38,000  Level Minneapolis Center
11:50AM 42.5133 -92.4122 275° West 434 499 38,000  Level Minneapolis Center
11:51AM 42.5228 -92.5753 275° West 435 501 38,000  Level Minneapolis Center
11:52AM 42.5317 -92.7400 274° West 439 505 38,000  Level Minneapolis Center
11:53AM 42.5414 -92.9036 275° West 439 505 38,000  Level Minneapolis Center
11:55AM 42.5506 -93.0683 274° West 441 507 38,000  Level Minneapolis Center
11:56AM 42.5636 -93.2992 274° West 442 509 38,000  Level Minneapolis Center
11:57AM 42.5719 -93.4642 274° West 442 509 38,000  Level Minneapolis Center
11:58AM 42.5803 -93.6261 274° West 435 501 38,000  Level Minneapolis Center
11:59AM 42.5881 -93.7894 274° West 436 502 38,000  Level Minneapolis Center
12:00PM 42.5853 -93.9547 269° West 443 510 38,000  Level Minneapolis Center
12:01PM 42.5692 -94.1175 262° West 441 507 38,000  Level Minneapolis Center
12:02PM 42.5539 -94.3153 264° West 443 510 38,000  Level Minneapolis Center
12:03PM 42.5375 -94.4797 262° West 444 511 38,000  Level Minneapolis Center
12:04PM 42.5217 -94.6311 262° West 444 511 38,000  Level Minneapolis Center
12:05PM 42.5022 -94.8311 263° West 447 514 38,000  Level Minneapolis Center
12:06PM 42.4864 -94.9944 263° West 442 509 38,000  Level Minneapolis Center
12:07PM 42.4694 -95.1625 262° West 447 514 38,000  Level Minneapolis Center
12:08PM 42.4522 -95.3294 262° West 450 518 38,000  Level Minneapolis Center
12:09PM 42.4342 -95.4944 262° West 447 514 38,000  Level Minneapolis Center
12:10PM 42.4175 -95.6647 263° West 454 522 38,000  Level Minneapolis Center
12:11PM 42.4000 -95.8283 262° West 446 513 38,000  Level Minneapolis Center
12:12PM 42.3747 -96.0603 262° West 446 513 38,000  Level Minneapolis Center
12:13PM 42.3575 -96.2269 262° West 449 517 38,000  Level Minneapolis Center
12:14PM 42.3383 -96.3911 261° West 448 516 38,000  Level Minneapolis Center
12:15PM 42.3239 -96.5236 262° West 447 514 38,000  Level Minneapolis Center
12:16PM 42.3003 -96.7194 261° West 443 510 38,000  Level Minneapolis Center
12:18PM 42.2825 -96.8839 262° West 444 511 38,000  Level Minneapolis Center
12:19PM 42.2628 -97.0472 261° West 443 510 38,000  Level Minneapolis Center
12:20PM 42.2397 -97.2450 261° West 445 512 38,000  Level Minneapolis Center
12:21PM 42.2194 -97.4092 261° West 444 511 38,000  Level Minneapolis Center
12:22PM 42.1958 -97.6047 261° West 443 510 38,000  Level Minneapolis Center
12:23PM 42.1758 -97.7689 261° West 444 511 38,000  Level Minneapolis Center
12:24PM 42.1544 -97.9378 260° West 444 511 38,000  Level Minneapolis Center
12:25PM 42.1339 -98.0983 260° West 437 503 38,000  Level Minneapolis Center
12:26PM 42.1136 -98.2592 260° West 438 504 38,000  Level Minneapolis Center
12:27PM 42.0928 -98.4203 260° West 437 503 38,000  Level Minneapolis Center
12:28PM 42.0664 -98.6139 260° West 439 505 38,000  Level Minneapolis Center
12:29PM 42.0453 -98.7750 260° West 440 506 38,000  Level Minneapolis Center
12:30PM 42.0203 -98.9667 260° West 437 503 38,000  Level Minneapolis Center
12:31PM 41.9981 -99.1272 260° West 439 505 38,000  Level Minneapolis Center
12:32PM 41.9889 -99.1914 259° West 437 503 38,000  Level Denver Center
12:33PM 41.9661 -99.3517 259° West 438 504 38,000  Level Denver Center
12:34PM 41.9444 -99.5111 260° West 436 502 38,000  Level Denver Center
12:35PM 41.9219 -99.6694 259° West 435 501 38,000  Level Denver Center
12:36PM 41.8992 -99.8322 259° West 433 498 38,000  Level Denver Center
12:37PM 41.8739 -100.0086 259° West 433 498 38,000  Level Denver Center
12:38PM 41.8508 -100.1597 258° West 432 497 38,000  Level Denver Center
12:39PM 41.8256 -100.3361 259° West 433 498 38,000  Level Denver Center
12:40PM 41.8028 -100.4856 258° West 430 495 38,000  Level Denver Center
12:41PM 41.7767 -100.6614 259° West 432 497 38,000  Level Denver Center
12:42PM 41.7536 -100.8119 258° West 431 496 38,000  Level Denver Center
12:43PM 41.7278 -100.9858 259° West 428 493 38,000  Level Denver Center
12:44PM 41.7044 -101.1347 258° West 429 494 38,000  Level Denver Center
12:45PM 41.6772 -101.3092 258° West 430 495 38,000  Level Denver Center
12:46PM 41.6492 -101.4831 258° West 429 494 38,000  Level Denver Center
12:47PM 41.6219 -101.6561 258° West 428 493 38,000  Level Denver Center
12:48PM 41.5975 -101.8058 258° West 431 496 38,000  Level Denver Center
12:49PM 41.5694 -101.9783 258° West 428 493 38,000  Level Denver Center
12:50PM 41.5456 -102.1267 258° West 428 493 38,000  Level Denver Center
12:51PM 41.5150 -102.2989 257° West 429 494 38,000  Level Denver Center
12:52PM 41.4928 -102.4450 259° West 424 488 38,000  Level Denver Center
12:54PM 41.4675 -102.5922 257° West 425 489 38,000  Level Denver Center
12:55PM 41.4347 -102.7781 257° West 426 490 38,000  Level Denver Center
12:56PM 41.4100 -102.9253 257° West 426 490 38,000  Level Denver Center
12:57PM 41.3794 -103.0956 257° West 424 488 38,000  Level Denver Center
12:58PM 41.3547 -103.2419 257° West 423 487 38,000  Level Denver Center
12:59PM 41.3203 -103.4361 257° West 421 484 38,000  Level Denver Center
01:00PM 41.2942 -103.5817 257° West 422 486 38,000  Level Denver Center
01:01PM 41.2642 -103.7522 257° West 424 488 38,000  Level Denver Center
01:02PM 41.2372 -103.8967 256° West 422 486 38,000  Level Denver Center
01:03PM 41.2061 -104.0664 256° West 424 488 38,000  Level Denver Center
01:04PM 41.1797 -104.2117 256° West 422 486 38,000  Level Denver Center
01:05PM 41.1481 -104.3808 256° West 423 487 38,000  Level Denver Center
01:06PM 41.1214 -104.5289 257° West 428 493 38,000  Level Denver Center
01:07PM 41.0936 -104.6747 256° West 427 491 38,000  Level Denver Center
01:08PM 41.0617 -104.8411 256° West 422 486 38,000  Level Denver Center
01:09PM 41.0342 -104.9844 256° West 419 482 38,000  Level Denver Center
01:10PM 41.0014 -105.1550 256° West 423 487 38,000  Level Denver Center
01:11PM 40.9719 -105.3044 255° West 420 483 38,000  Level Denver Center
01:12PM 40.9425 -105.4558 256° West 421 484 38,000  Level Denver Center
01:13PM 40.9125 -105.6075 255° West 423 487 38,000  Level Denver Center
01:14PM 40.8822 -105.7567 255° West 419 482 38,000  Level Denver Center
01:15PM 40.8467 -105.9339 255° West 425 489 38,000  Level Denver Center
01:16PM 40.8153 -106.0864 255° West 426 490 38,000  Level Denver Center
01:17PM 40.7850 -106.2378 255° West 424 488 38,000  Level Denver Center
01:19PM 40.7558 -106.3831 255° West 427 491 38,000  Level Denver Center
01:20PM 40.7211 -106.5469 254° West 430 495 38,000  Level Denver Center
01:21PM 40.6900 -106.6967 255° West 426 490 38,000  Level Denver Center
01:22PM 40.6589 -106.8483 255° West 428 493 38,000  Level Denver Center
01:23PM 40.6264 -106.9992 254° West 428 493 38,000  Level Denver Center
01:24PM 40.5950 -107.1472 254° West 424 488 38,000  Level Denver Center
01:25PM 40.5497 -107.3583 254° West 426 490 38,000  Level Denver Center
01:26PM 40.5175 -107.5025 254° West 429 494 38,000  Level Denver Center
01:27PM 40.4808 -107.6711 254° West 431 496 38,000  Level Denver Center
01:28PM 40.4497 -107.8144 254° West 429 494 38,000  Level Denver Center
01:29PM 40.4128 -107.9822 254° West 429 494 38,000  Level Denver Center
01:30PM 40.3797 -108.1269 253° West 431 496 38,000  Level Denver Center
01:31PM 40.3431 -108.2944 254° West 430 495 38,000  Level Denver Center
01:32PM 40.3106 -108.4389 254° West 432 497 38,000  Level Denver Center
01:33PM 40.2725 -108.6064 253° West 431 496 38,000  Level Denver Center
01:34PM 40.2611 -108.6544 253° West 432 497 38,000  Level Salt Lake Center
01:35PM 40.2286 -108.7967 253° West 429 494 38,000  Level Salt Lake Center
01:35PM 40.2017 -108.9139 253° West 428 493 38,000  Level Denver Center
01:36PM 40.1683 -109.0553 253° West 428 493 38,000  Level Denver Center
01:37PM 40.1300 -109.2200 253° West 427 491 38,000  Level Denver Center
01:38PM 40.1192 -109.2683 254° West 428 493 38,000  Level Salt Lake Center
01:38PM 40.0964 -109.3603 252° West 426 490 38,000  Level Denver Center
01:39PM 40.0575 -109.5272 253° West 431 496 38,000  Level Denver Center
01:40PM 40.0233 -109.6681 252° West 427 491 38,000  Level Denver Center
01:41PM 40.0122 -109.7156 253° West 428 493 38,000  Level Salt Lake Center
01:42PM 39.9781 -109.8583 253° West 430 495 38,000  Level Salt Lake Center
01:43PM 39.9383 -110.0236 253° West 429 494 38,000  Level Salt Lake Center
01:44PM 39.9031 -110.1656 252° West 431 496 38,000  Level Salt Lake Center
01:45PM 39.8622 -110.3311 252° West 431 496 38,000  Level Salt Lake Center
01:46PM 39.8272 -110.4719 252° West 430 495 38,000  Level Salt Lake Center
01:47PM 39.7925 -110.6131 252° West 428 493 38,000  Level Salt Lake Center
01:48PM 39.7514 -110.7772 252° West 428 493 38,000  Level Salt Lake Center
01:49PM 39.7172 -110.9178 253° West 428 493 38,000  Level Salt Lake Center
01:50PM 39.6764 -111.0814 252° West 427 491 38,000  Level Salt Lake Center
01:51PM 39.6392 -111.2233 251° West 432 497 38,000  Level Salt Lake Center
01:52PM 39.6039 -111.3633 252° West 432 497 38,000  Level Salt Lake Center
01:53PM 39.5583 -111.5428 252° West 436 502 38,000  Level Salt Lake Center
01:54PM 39.5192 -111.6906 251° West 435 501 38,000  Level Salt Lake Center
01:55PM 39.4806 -111.8394 251° West 436 502 38,000  Level Salt Lake Center
01:56PM 39.4425 -111.9872 252° West 434 499 38,000  Level Salt Lake Center
01:57PM 39.4022 -112.1342 251° West 433 498 38,000  Level Salt Lake Center
01:58PM 39.3644 -112.2814 252° West 432 497 38,000  Level Salt Lake Center
01:59PM 39.3242 -112.4283 251° West 434 499 38,000  Level Salt Lake Center
02:00PM 39.2861 -112.5761 252° West 435 501 38,000  Level Salt Lake Center
02:01PM 39.2403 -112.7419 250° West 431 496 38,000  Level Salt Lake Center
02:02PM 39.2025 -112.8922 252° West 438 504 38,000  Level Salt Lake Center
02:03PM 39.1644 -113.0397 252° West 437 503 38,000  Level Salt Lake Center
02:04PM 39.1250 -113.1822 250° West 429 494 38,000  Level Salt Lake Center
02:05PM 39.0864 -113.3292 251° West 432 497 38,000  Level Salt Lake Center
02:06PM 39.0411 -113.5064 252° West 434 499 38,000  Level Salt Lake Center
02:07PM 39.0022 -113.6506 251° West 430 495 38,000  Level Salt Lake Center
02:08PM 38.9622 -113.7967 251° West 434 499 38,000  Level Salt Lake Center
02:09PM 38.9236 -113.9419 251° West 433 498 38,000  Level Salt Lake Center
02:11PM 38.8839 -114.0864 251° West 432 497 38,000  Level Salt Lake Center
02:12PM 38.8444 -114.2308 251° West 431 496 38,000  Level Salt Lake Center
02:13PM 38.7961 -114.4056 251° West 434 499 38,000  Level Salt Lake Center
02:14PM 38.7564 -114.5497 251° West 432 497 38,000  Level Salt Lake Center
02:15PM 38.7153 -114.6942 250° West 433 498 38,000  Level Salt Lake Center
02:16PM 38.6756 -114.8378 251° West 431 496 38,000  Level Salt Lake Center
02:17PM 38.6328 -114.9822 249° West 433 498 38,000  Level Salt Lake Center
02:18PM 38.5936 -115.1231 250° West 428 493 38,000  Level Salt Lake Center
02:19PM 38.5531 -115.2653 250° West 427 491 38,000  Level Salt Lake Center
02:20PM 38.5044 -115.4297 249° West 429 494 38,000  Level Salt Lake Center
02:21PM 38.4622 -115.5733 249° West 432 497 38,000  Level Salt Lake Center
02:22PM 38.4203 -115.7181 250° West 434 499 38,000  Level Salt Lake Center
02:23PM 38.3792 -115.8625 250° West 434 499 38,000  Level Salt Lake Center
02:24PM 38.3358 -116.0072 249° West 435 501 38,000  Level Salt Lake Center
02:25PM 38.2950 -116.1522 250° West 435 501 38,000  Level Salt Lake Center
02:26PM 38.2514 -116.2967 249° West 437 503 38,000  Level Salt Lake Center
02:27PM 38.2011 -116.4692 250° West 433 498 38,000  Level Oakland Center
02:28PM 38.1575 -116.6131 249° West 433 498 38,000  Level Oakland Center
02:29PM 38.1150 -116.7561 249° West 433 498 38,000  Level Salt Lake Center
02:30PM 38.0719 -116.8986 249° West 431 496 38,000  Level Salt Lake Center
02:31PM 38.0286 -117.0406 249° West 427 491 38,000  Level Salt Lake Center
02:31PM 38.0286 -117.0406 249° West 426 490 38,000  Level Oakland Center
02:32PM 37.9778 -117.1817 245° Southwest 428 493 38,000  Level Oakland Center
02:33PM 37.9267 -117.3228 245° Southwest 434 499 38,000  Level Oakland Center
02:34PM 37.8778 -117.4614 246° West 430 495 38,000  Level Oakland Center
02:35PM 37.8269 -117.5997 245° Southwest 431 496 38,000  Level Oakland Center
02:36PM 37.7761 -117.7367 245° Southwest 430 495 38,000  Level Oakland Center
02:37PM 37.7264 -117.8767 246° West 433 498 38,000  Level Oakland Center
02:38PM 37.6739 -118.0136 244° Southwest 432 497 38,000 -360 Level Oakland Center
02:39PM 37.6161 -118.1819 247° West 434 499 37,300 -840 Descending Oakland Center
02:40PM 37.5642 -118.3219 245° Southwest 438 504 36,300 -960 Descending Oakland Center
02:41PM 37.5092 -118.4642 244° Southwest 446 513 35,400 -960 Descending Oakland Center
02:42PM 37.4556 -118.6100 245° Southwest 454 522 34,400 -1,080 Descending Oakland Center
02:43PM 37.4011 -118.7547 245° Southwest 458 527 33,300 -1,080 Descending Oakland Center
02:44PM 37.3775 -118.9006 259° West 442 509 32,300 -660 Descending Oakland Center
02:45PM 37.3628 -119.0511 263° West 436 502 32,000 -540 Descending Oakland Center
02:46PM 37.3497 -119.2053 264° West 452 520 31,200 -1,080 Descending Oakland Center
02:47PM 37.3314 -119.3844 263° West 451 519 29,800 -1,740 Descending Oakland Center
02:48PM 37.3164 -119.5253 262° West 416 479 27,700 -2,040 Descending Oakland Center
02:50PM 37.3011 -119.6625 262° West 403 464 25,700 -1,860 Descending Oakland Center
02:51PM 37.2869 -119.7964 262° West 391 450 24,000 -1,080 Descending Oakland Center
02:52PM 37.2700 -119.9336 261° West 385 443 23,600 -720 Descending Oakland Center
02:53PM 37.2553 -120.0611 262° West 372 428 22,600 -1,020 Descending Oakland Center
02:54PM 37.2408 -120.1889 262° West 369 425 21,600 -1,440 Descending Oakland Center
02:55PM 37.2269 -120.3125 262° West 361 415 19,700 -2,100 Descending Oakland Center
02:55PM 37.2167 -120.3833 260° West 355 409 18,300 -2,280 Descending Northern Cal TRACON
02:56PM 37.2000 -120.5000 260° West 408 470 16,200 -2,160 Descending Northern Cal TRACON
02:57PM 37.1667 -120.6167 250° West 352 405 14,000 -2,340 Descending Northern Cal TRACON
02:58PM 37.1500 -120.7500 261° West 347 399 11,600 -2,100 Descending Northern Cal TRACON
02:59PM 37.1333 -120.8667 260° West 339 390 9,900 -1,140 Descending Northern Cal TRACON
03:00PM 37.1317 -120.9217 268° West 317 365 9,900  Level Oakland Center
03:01PM 37.1178 -121.0317 261° West 319 367 9,900  Level Oakland Center
03:02PM 37.1022 -121.1433 260° West 322 371 9,900  Level Oakland Center
03:03PM 37.0886 -121.2536 261° West 321 369 10,000  Climbing Oakland Center
03:04PM 37.0792 -121.3625 264° West 326 375 9,900 -960 Descending Oakland Center
03:05PM 37.1039 -121.4606 288° West 291 335 8,100 -1,320 Descending Oakland Center
03:06PM 37.1261 -121.5508 287° West 273 314 7,300 -1,140 Descending Oakland Center
03:07PM 37.1461 -121.6350 287° West 253 291 5,800 -1,140 Descending Oakland Center
03:08PM 37.1633 -121.7153 285° West 249 287 5,000 -1,080 Descending Oakland Center
03:09PM 37.2172 -121.7722 320° Northwest 224 258 3,600 -1,260 Descending Oakland Center
03:10PM 37.2600 -121.8189 319° Northwest 212 244 2,500 -1,080 Descending Oakland Center
03:11PM 37.2989 -121.8639 317° Northwest 201 231 1,500 -900 Descending Oakland Center
03:12PM 37.3303 -121.8953 322° Northwest 166 191 700 10,920 Descending Oakland Center
03:13PM 37.3578 -121.9256 319° Northwest 141 162 24,000 22,500 Climbing Oakland Center
03:15PM 37.3500 -121.9167 North  Level FlightAware Approximate
03:22PM 37.3627 -121.9291 North  Level Estimated